createdAt,value
2022-10-05T00:01:23.423Z,38.95
2022-10-05T00:04:00.357Z,38.75
2022-10-05T00:06:31.960Z,43.67
2022-10-05T00:09:03.031Z,46.63
2022-10-05T00:11:32.963Z,43.97
2022-10-05T00:14:02.326Z,48.78
2022-10-05T00:16:31.525Z,48.95
2022-10-05T00:19:01.891Z,48.15
2022-10-05T00:21:31.457Z,48.53
2022-10-05T00:24:02.507Z,46.45
2022-10-05T00:26:35.346Z,44.33
2022-10-05T00:31:38.077Z,42.85
2022-10-05T00:34:07.287Z,40.10
2022-10-05T00:36:36.591Z,39.38
2022-10-05T00:39:05.959Z,38.25
2022-10-05T00:41:43.045Z,33.85
2022-10-05T00:44:35.749Z,32.53
2022-10-05T00:47:34.641Z,28.92
2022-10-05T00:50:08.402Z,27.17
2022-10-05T00:53:03.257Z,26.42
2022-10-05T00:55:52.500Z,24.52
2022-10-05T00:58:31.178Z,26.38
2022-10-05T01:01:01.828Z,31.90
2022-10-05T01:03:37.948Z,26.85
2022-10-05T01:06:21.393Z,27.75
2022-10-05T01:08:57.117Z,25.30
2022-10-05T01:11:45.126Z,24.60
2022-10-05T01:14:21.616Z,22.77
2022-10-05T01:16:53.215Z,21.63
2022-10-05T01:19:45.520Z,21.90
2022-10-05T01:22:29.049Z,22.15
2022-10-05T01:24:59.068Z,19.50
2022-10-05T01:27:32.729Z,18.20
2022-10-05T01:30:07.137Z,16.73
2022-10-05T01:32:39.801Z,16.75
2022-10-05T01:35:14.484Z,17.05
2022-10-05T01:38:01.517Z,17.00
2022-10-05T01:40:33.603Z,12.77
2022-10-05T01:43:23.937Z,12.15
2022-10-05T01:46:23.832Z,10.90
2022-10-05T01:49:02.486Z,10.52
2022-10-05T01:51:45.468Z,10.93
2022-10-05T01:57:15.742Z,9.20
2022-10-05T02:00:09.016Z,9.40
2022-10-05T02:05:23.991Z,10.80
2022-10-05T02:08:01.541Z,8.80
2022-10-05T02:10:40.954Z,8.25
2022-10-05T02:13:19.021Z,8.45
2022-10-05T02:15:57.000Z,8.38
2022-10-05T02:18:34.397Z,8.70
2022-10-05T02:21:05.998Z,9.20
2022-10-05T02:23:38.365Z,7.60
2022-10-05T02:26:11.286Z,7.60
2022-10-05T02:29:02.879Z,7.22
2022-10-05T02:31:47.219Z,7.00
2022-10-05T02:34:25.491Z,6.68
2022-10-05T02:37:22.331Z,7.30
2022-10-05T02:40:02.750Z,6.93
2022-10-05T02:42:44.589Z,7.28
2022-10-05T02:45:24.196Z,8.32
2022-10-05T02:48:04.515Z,6.25
2022-10-05T02:50:57.871Z,5.13
2022-10-05T02:53:29.993Z,4.05
2022-10-05T02:56:16.356Z,4.75
2022-10-05T02:58:57.345Z,4.18
2022-10-05T03:01:32.129Z,4.90
2022-10-05T03:04:17.783Z,4.68
2022-10-05T03:07:11.453Z,4.10
2022-10-05T03:10:05.654Z,3.97
2022-10-05T03:12:58.560Z,3.60
2022-10-05T03:15:47.976Z,3.83
2022-10-05T03:18:30.737Z,3.25
2022-10-05T03:21:12.217Z,3.33
2022-10-05T03:24:01.427Z,3.80
2022-10-05T03:26:59.444Z,3.92
2022-10-05T03:29:42.723Z,6.65
2022-10-05T03:32:21.760Z,3.58
2022-10-05T03:35:13.933Z,3.10
2022-10-05T03:38:01.771Z,3.78
2022-10-05T03:40:58.603Z,3.58
2022-10-05T03:43:48.956Z,3.53
2022-10-05T03:46:57.429Z,3.70
2022-10-05T03:49:47.825Z,3.15
2022-10-05T03:52:20.553Z,4.15
2022-10-05T03:57:28.937Z,3.80
2022-10-05T04:00:03.709Z,3.38
2022-10-05T04:02:53.098Z,3.30
2022-10-05T04:05:29.225Z,3.40
2022-10-05T04:08:03.164Z,3.35
2022-10-05T04:10:53.399Z,3.65
2022-10-05T04:13:28.166Z,3.92
2022-10-05T04:15:59.312Z,3.17
2022-10-05T04:18:35.614Z,3.47
2022-10-05T04:21:27.299Z,4.00
2022-10-05T04:24:03.245Z,3.42
2022-10-05T04:26:56.238Z,3.65
2022-10-05T04:29:44.827Z,3.05
2022-10-05T04:32:53.173Z,3.53
2022-10-05T04:35:55.702Z,3.67
2022-10-05T04:39:00.660Z,3.80
2022-10-05T04:41:30.866Z,3.90
2022-10-05T04:44:31.799Z,3.53
2022-10-05T04:47:16.722Z,3.30
2022-10-05T04:50:09.465Z,3.33
2022-10-05T04:52:48.936Z,3.47
2022-10-05T04:55:35.022Z,3.60
2022-10-05T04:58:19.429Z,3.05
2022-10-05T05:00:56.658Z,4.03
2022-10-05T05:03:46.984Z,3.30
2022-10-05T05:06:40.055Z,5.38
2022-10-05T05:09:29.338Z,3.40
2022-10-05T05:12:18.602Z,3.50
2022-10-05T05:15:23.405Z,3.30
2022-10-05T05:18:02.080Z,3.72
2022-10-05T05:20:54.772Z,3.20
2022-10-05T05:23:29.400Z,3.50
2022-10-05T05:26:26.676Z,2.90
2022-10-05T05:29:19.449Z,3.25
2022-10-05T05:31:54.771Z,3.13
2022-10-05T05:34:45.123Z,3.75
2022-10-05T05:37:16.316Z,3.00
2022-10-05T05:40:05.244Z,3.20
2022-10-05T05:42:38.899Z,3.45
2022-10-05T05:45:20.122Z,3.10
2022-10-05T05:47:55.308Z,3.55
2022-10-05T05:50:51.291Z,2.60
2022-10-05T05:53:29.052Z,3.30
2022-10-05T05:56:06.297Z,3.47
2022-10-05T05:58:40.376Z,3.42
2022-10-05T06:01:34.348Z,3.33
2022-10-05T06:04:08.007Z,3.78
2022-10-05T06:06:43.308Z,3.22
2022-10-05T06:09:42.445Z,3.58
2022-10-05T06:12:16.136Z,3.30
2022-10-05T06:15:23.776Z,3.17
2022-10-05T06:17:57.881Z,3.20
2022-10-05T06:20:30.222Z,3.85
2022-10-05T06:23:05.392Z,4.15
2022-10-05T06:25:37.546Z,3.60
2022-10-05T06:28:24.680Z,3.13
2022-10-05T06:31:14.979Z,3.25
2022-10-05T06:33:51.818Z,2.75
2022-10-05T06:36:44.697Z,3.63
2022-10-05T06:42:11.059Z,3.13
2022-10-05T06:44:57.921Z,3.08
2022-10-05T06:47:44.090Z,3.67
2022-10-05T06:50:18.804Z,3.40
2022-10-05T06:52:49.904Z,3.55
2022-10-05T06:55:40.306Z,3.28
2022-10-05T06:58:29.514Z,3.30
2022-10-05T07:01:07.440Z,3.40
2022-10-05T07:03:41.160Z,3.05
2022-10-05T07:06:13.107Z,3.20
2022-10-05T07:08:56.696Z,3.30
2022-10-05T07:12:05.874Z,2.80
2022-10-05T07:14:58.074Z,3.97
2022-10-05T07:17:48.376Z,3.90
2022-10-05T07:20:21.682Z,3.83
2022-10-05T07:23:10.971Z,3.90
2022-10-05T07:25:56.528Z,3.47
2022-10-05T07:28:46.080Z,3.33
2022-10-05T07:31:40.821Z,3.08
2022-10-05T07:34:24.025Z,5.28
2022-10-05T07:37:26.097Z,5.05
2022-10-05T07:40:10.766Z,6.22
2022-10-05T07:42:52.370Z,3.70
2022-10-05T07:45:31.191Z,4.05
2022-10-05T07:48:23.082Z,4.00
2022-10-05T07:50:58.992Z,3.80
2022-10-05T07:53:39.536Z,3.92
2022-10-05T07:56:17.925Z,3.90
2022-10-05T07:58:54.252Z,3.63
2022-10-05T08:01:30.972Z,5.70
2022-10-05T08:04:22.979Z,5.82
2022-10-05T08:06:55.875Z,4.20
2022-10-05T08:09:47.258Z,3.50
2022-10-05T08:12:38.962Z,3.92
2022-10-05T08:15:18.321Z,3.45
2022-10-05T08:18:12.763Z,3.70
2022-10-05T08:21:02.028Z,3.35
2022-10-05T08:23:40.926Z,3.58
2022-10-05T08:26:14.549Z,3.63
2022-10-05T08:29:23.170Z,4.75
2022-10-05T08:31:59.025Z,3.90
2022-10-05T08:37:28.738Z,3.85
2022-10-05T08:40:26.219Z,3.58
2022-10-05T08:43:07.580Z,3.55
2022-10-05T08:46:13.383Z,3.70
2022-10-05T08:48:57.746Z,3.75
2022-10-05T08:51:44.697Z,4.20
2022-10-05T08:54:30.675Z,3.97
2022-10-05T08:57:20.017Z,3.55
2022-10-05T09:00:12.374Z,3.60
2022-10-05T09:03:01.797Z,3.85
2022-10-05T09:06:00.750Z,3.13
2022-10-05T09:08:50.106Z,3.38
2022-10-05T09:11:40.739Z,3.15
2022-10-05T09:14:30.991Z,3.03
2022-10-05T09:17:23.776Z,4.18
2022-10-05T09:19:56.027Z,3.92
2022-10-05T09:22:39.873Z,3.70
2022-10-05T09:25:48.219Z,3.80
2022-10-05T09:28:25.972Z,4.28
2022-10-05T09:31:00.673Z,4.05
2022-10-05T09:33:41.018Z,3.83
2022-10-05T09:36:22.062Z,3.58
2022-10-05T09:39:19.840Z,4.47
2022-10-05T09:42:16.921Z,4.22
2022-10-05T09:45:24.137Z,3.85
2022-10-05T09:48:04.833Z,4.57
2022-10-05T09:50:50.090Z,3.88
2022-10-05T09:53:42.244Z,4.15
2022-10-05T09:56:31.438Z,3.75
2022-10-05T09:59:24.198Z,3.85
2022-10-05T10:02:15.860Z,3.67
2022-10-05T10:05:08.743Z,7.30
2022-10-05T10:08:07.505Z,3.35
2022-10-05T10:10:41.174Z,4.10
2022-10-05T10:13:30.815Z,3.67
2022-10-05T10:16:08.668Z,4.13
2022-10-05T10:19:17.061Z,4.57
2022-10-05T10:22:07.357Z,4.38
2022-10-05T10:25:05.158Z,5.20
2022-10-05T10:27:52.467Z,5.18
2022-10-05T10:30:24.105Z,4.40
2022-10-05T10:33:04.036Z,4.22
2022-10-05T10:36:00.539Z,4.75
2022-10-05T10:38:37.597Z,3.88
2022-10-05T10:41:27.823Z,6.13
2022-10-05T10:44:17.164Z,4.10
2022-10-05T10:47:13.663Z,4.40
2022-10-05T10:50:03.328Z,4.50
2022-10-05T10:52:41.328Z,4.65
2022-10-05T10:55:31.796Z,4.60
2022-10-05T10:58:24.938Z,4.68
2022-10-05T11:03:54.415Z,4.30
2022-10-05T11:06:28.308Z,4.28
2022-10-05T11:09:26.896Z,5.00
2022-10-05T11:12:14.175Z,5.13
2022-10-05T11:15:03.294Z,6.55
2022-10-05T11:17:42.104Z,6.28
2022-10-05T11:20:27.841Z,5.10
2022-10-05T11:23:38.966Z,4.45
2022-10-05T11:26:28.470Z,4.22
2022-10-05T11:29:36.837Z,4.28
2022-10-05T11:32:43.221Z,4.43
2022-10-05T11:35:17.174Z,4.10
2022-10-05T11:38:25.717Z,5.03
2022-10-05T11:41:25.118Z,4.65
2022-10-05T11:44:10.305Z,5.22
2022-10-05T11:47:00.963Z,5.03
2022-10-05T11:49:51.280Z,4.53
2022-10-05T11:52:32.492Z,4.80
2022-10-05T11:55:26.291Z,4.97
2022-10-05T11:57:57.713Z,5.22
2022-10-05T12:00:34.057Z,4.80
2022-10-05T12:03:15.292Z,4.60
2022-10-05T12:05:46.428Z,5.03
2022-10-05T12:08:41.911Z,4.78
2022-10-05T12:11:28.255Z,4.70
2022-10-05T12:14:07.718Z,4.60
2022-10-05T12:17:07.682Z,5.22
2022-10-05T12:19:42.462Z,4.85
2022-10-05T12:22:23.497Z,4.85
2022-10-05T12:25:24.008Z,4.95
2022-10-05T12:27:59.091Z,5.00
2022-10-05T12:30:52.025Z,5.50
2022-10-05T12:33:26.597Z,5.80
2022-10-05T12:36:04.946Z,5.97
2022-10-05T12:38:43.470Z,5.95
2022-10-05T12:41:17.317Z,6.28
2022-10-05T12:44:09.415Z,6.25
2022-10-05T12:46:59.944Z,6.30
2022-10-05T12:49:56.742Z,6.55
2022-10-05T12:53:01.665Z,7.22
2022-10-05T12:55:35.240Z,7.15
2022-10-05T12:58:21.923Z,7.07
2022-10-05T13:01:07.526Z,7.28
2022-10-05T13:03:42.657Z,7.53
2022-10-05T13:06:29.517Z,6.80
2022-10-05T13:08:59.769Z,6.57
2022-10-05T13:11:46.931Z,6.43
2022-10-05T13:14:18.082Z,6.70
2022-10-05T13:17:13.702Z,6.80
2022-10-05T13:19:51.965Z,5.70
2022-10-05T13:22:30.532Z,5.70
2022-10-05T13:25:18.841Z,5.72
2022-10-05T13:28:01.907Z,5.95
2022-10-05T13:30:31.895Z,6.10
2022-10-05T13:33:27.178Z,5.82
2022-10-05T13:36:11.634Z,5.32
2022-10-05T13:38:56.406Z,5.32
2022-10-05T13:41:57.221Z,5.05
2022-10-05T13:44:36.774Z,5.50
2022-10-05T13:47:18.258Z,5.43
2022-10-05T13:49:59.277Z,5.10
2022-10-05T13:52:38.509Z,6.35
2022-10-05T13:55:21.393Z,6.15
2022-10-05T13:57:58.978Z,6.97
2022-10-05T14:00:28.796Z,6.43
2022-10-05T14:03:02.307Z,6.45
2022-10-05T14:05:33.529Z,6.72
2022-10-05T14:08:07.397Z,6.43
2022-10-05T14:10:43.324Z,7.05
2022-10-05T14:13:28.390Z,9.50
2022-10-05T14:16:01.037Z,9.82
2022-10-05T14:21:23.527Z,9.55
2022-10-05T14:23:53.837Z,10.38
2022-10-05T14:26:28.745Z,11.15
2022-10-05T14:29:20.584Z,11.57
2022-10-05T14:32:03.209Z,12.80
2022-10-05T14:34:46.467Z,11.88
2022-10-05T14:37:26.629Z,11.77
2022-10-05T14:40:03.912Z,10.48
2022-10-05T14:42:47.287Z,12.25
2022-10-05T14:45:21.159Z,12.18
2022-10-05T14:47:54.735Z,11.48
2022-10-05T14:50:27.728Z,12.60
2022-10-05T14:53:18.298Z,12.00
2022-10-05T14:55:57.131Z,11.07
2022-10-05T14:58:57.042Z,11.02
2022-10-05T15:01:29.406Z,11.30
2022-10-05T15:04:25.635Z,11.77
2022-10-05T15:07:25.801Z,12.20
2022-10-05T15:10:09.179Z,11.35
2022-10-05T15:12:48.149Z,10.52
2022-10-05T15:15:26.954Z,10.25
2022-10-05T15:18:09.436Z,10.65
2022-10-05T15:20:54.617Z,10.60
2022-10-05T15:23:29.880Z,9.50
2022-10-05T15:26:09.121Z,10.05
2022-10-05T15:29:04.863Z,10.25
2022-10-05T15:32:04.638Z,10.00
2022-10-05T15:34:57.934Z,9.82
2022-10-05T15:37:34.420Z,9.70
2022-10-05T15:40:16.365Z,9.45
2022-10-05T15:42:46.845Z,9.15
2022-10-05T15:45:25.421Z,9.48
2022-10-05T15:48:22.354Z,10.45
2022-10-05T15:51:16.963Z,11.55
2022-10-05T15:54:16.642Z,10.57
2022-10-05T15:56:54.850Z,11.82
2022-10-05T15:59:49.485Z,11.10
2022-10-05T16:02:26.970Z,10.32
2022-10-05T16:05:55.176Z,11.65
2022-10-05T16:08:56.055Z,11.93
2022-10-05T16:11:49.879Z,11.07
2022-10-05T16:14:23.525Z,10.48
2022-10-05T16:17:22.879Z,10.50
2022-10-05T16:20:20.085Z,9.48
2022-10-05T16:23:01.125Z,9.82
2022-10-05T16:25:47.746Z,10.93
2022-10-05T16:28:54.628Z,10.15
2022-10-05T16:31:50.507Z,9.27
2022-10-05T16:34:55.832Z,9.80
2022-10-05T16:38:04.160Z,10.48
2022-10-05T16:41:15.023Z,10.25
2022-10-05T16:43:46.226Z,9.80
2022-10-05T16:46:40.413Z,10.00
2022-10-05T16:49:13.958Z,10.05
2022-10-05T16:51:46.207Z,9.82
2022-10-05T16:54:23.289Z,10.27
2022-10-05T16:56:55.427Z,11.10
2022-10-05T17:03:29.867Z,11.35
2022-10-05T17:06:19.077Z,10.80
2022-10-05T17:08:52.700Z,9.63
2022-10-05T17:11:30.301Z,10.48
2022-10-05T17:14:09.398Z,10.65
2022-10-05T17:16:47.046Z,9.45
2022-10-05T17:19:43.650Z,10.05
2022-10-05T17:22:34.445Z,10.93
2022-10-05T17:25:16.114Z,9.60
2022-10-05T17:27:55.413Z,10.43
2022-10-05T17:30:40.627Z,11.65
2022-10-05T17:33:31.402Z,9.57
2022-10-05T17:36:09.874Z,10.77
2022-10-05T17:39:16.525Z,9.85
2022-10-05T17:41:46.668Z,14.48
2022-10-05T17:44:17.810Z,10.43
2022-10-05T17:46:52.782Z,12.30
2022-10-05T17:49:24.022Z,11.50
2022-10-05T17:52:13.836Z,11.07
2022-10-05T17:55:23.789Z,10.98
2022-10-05T17:57:53.981Z,10.95
2022-10-05T18:00:57.467Z,9.77
2022-10-05T18:06:36.759Z,11.13
2022-10-05T18:09:27.370Z,11.15
2022-10-05T18:12:20.674Z,10.57
2022-10-05T18:15:09.812Z,11.30
2022-10-05T18:17:43.486Z,10.18
2022-10-05T18:20:33.361Z,11.10
2022-10-05T18:23:07.509Z,11.38
2022-10-05T18:25:37.523Z,11.50
2022-10-05T18:28:13.183Z,11.43
2022-10-05T18:31:17.883Z,12.00
2022-10-05T18:33:48.293Z,12.02
2022-10-05T18:36:38.507Z,11.77
2022-10-05T18:39:17.508Z,11.02
2022-10-05T18:42:12.955Z,11.98
2022-10-05T18:44:47.489Z,11.82
2022-10-05T18:47:22.136Z,10.98
2022-10-05T18:50:19.054Z,11.30
2022-10-05T18:52:58.358Z,11.98
2022-10-05T18:55:49.107Z,12.00
2022-10-05T18:58:38.470Z,11.98
2022-10-05T19:01:31.214Z,10.30
2022-10-05T19:04:39.700Z,11.65
2022-10-05T19:07:09.839Z,10.45
2022-10-05T19:09:59.023Z,11.27
2022-10-05T19:12:52.298Z,10.20
2022-10-05T19:15:57.115Z,10.80
2022-10-05T19:19:05.871Z,9.27
2022-10-05T19:21:43.828Z,8.40
2022-10-05T19:24:52.262Z,8.35
2022-10-05T19:28:00.668Z,7.82
2022-10-05T19:30:52.448Z,7.68
2022-10-05T19:33:28.502Z,7.68
2022-10-05T19:36:37.327Z,7.97
2022-10-05T19:39:15.078Z,8.63
2022-10-05T19:41:46.119Z,7.85
2022-10-05T19:44:31.316Z,7.28
2022-10-05T19:47:07.264Z,7.20
2022-10-05T19:49:56.757Z,7.45
2022-10-05T19:52:38.055Z,7.07
2022-10-05T19:55:17.724Z,6.75
2022-10-05T19:57:53.807Z,7.28
2022-10-05T20:00:27.982Z,7.63
2022-10-05T20:03:20.267Z,7.28
2022-10-05T20:05:49.645Z,7.23
2022-10-05T20:08:20.942Z,7.28
2022-10-05T20:11:11.541Z,7.40
2022-10-05T20:13:44.184Z,7.15
2022-10-05T20:16:57.583Z,7.15
2022-10-05T20:19:54.711Z,7.28
2022-10-05T20:22:27.123Z,6.93
2022-10-05T20:24:59.912Z,7.18
2022-10-05T20:30:07.712Z,8.48
2022-10-05T20:32:36.982Z,7.72
2022-10-05T20:35:08.371Z,7.07
2022-10-05T20:37:38.205Z,7.22
2022-10-05T20:40:08.089Z,7.05
2022-10-05T20:42:37.440Z,6.55
2022-10-05T20:45:07.778Z,7.03
2022-10-05T20:47:39.045Z,6.63
2022-10-05T20:50:11.528Z,6.15
2022-10-05T20:52:41.268Z,6.18
2022-10-05T20:55:12.802Z,7.95
2022-10-05T20:57:43.397Z,5.30
2022-10-05T21:00:14.171Z,5.50
2022-10-05T21:02:43.308Z,5.32
2022-10-05T21:05:12.560Z,6.55
2022-10-05T21:07:42.259Z,6.57
2022-10-05T21:10:11.846Z,5.57
2022-10-05T21:12:41.081Z,5.07
2022-10-05T21:15:11.426Z,5.82
2022-10-05T21:17:41.372Z,5.75
2022-10-05T21:20:12.523Z,5.45
2022-10-05T21:22:41.859Z,5.50
2022-10-05T21:25:11.300Z,5.80
2022-10-05T21:27:40.542Z,5.50
2022-10-05T21:30:10.384Z,5.88
2022-10-05T21:32:44.161Z,5.22
2022-10-05T21:35:13.717Z,6.20
2022-10-05T21:37:43.087Z,5.72
2022-10-05T21:40:12.628Z,4.88
2022-10-05T21:42:41.916Z,5.03
2022-10-05T21:45:11.681Z,4.85
2022-10-05T21:47:40.896Z,5.35
2022-10-05T21:50:11.739Z,5.25
2022-10-05T21:52:41.115Z,5.13
2022-10-05T21:55:12.067Z,5.35
2022-10-05T21:57:42.615Z,5.32
2022-10-05T22:00:17.740Z,5.95
2022-10-05T22:02:46.811Z,5.75
2022-10-05T22:05:16.235Z,5.60
2022-10-05T22:07:45.542Z,6.22
2022-10-05T22:10:14.773Z,5.82
2022-10-05T22:12:44.046Z,6.60
2022-10-05T22:15:13.333Z,5.97
2022-10-05T22:17:43.729Z,6.72
2022-10-05T22:20:15.852Z,6.28
2022-10-05T22:22:45.026Z,5.68
2022-10-05T22:25:14.186Z,6.10
2022-10-05T22:27:44.614Z,5.82
2022-10-05T22:30:16.168Z,5.88
2022-10-05T22:32:46.260Z,6.15
2022-10-05T22:35:15.476Z,5.97
2022-10-05T22:37:44.738Z,5.75
2022-10-05T22:40:14.063Z,5.72
2022-10-05T22:42:43.304Z,5.95
2022-10-05T22:45:12.539Z,5.32
2022-10-05T22:47:42.763Z,6.63
2022-10-05T22:50:12.236Z,5.88
2022-10-05T22:52:41.883Z,5.85
2022-10-05T22:55:12.280Z,5.57
2022-10-05T22:57:42.514Z,5.80
2022-10-05T23:00:14.027Z,5.57
2022-10-05T23:02:45.102Z,5.25
2022-10-05T23:05:18.452Z,5.65
2022-10-05T23:07:48.458Z,6.20
2022-10-05T23:10:20.056Z,8.32
2022-10-05T23:13:00.892Z,6.35
2022-10-05T23:15:30.473Z,6.50
2022-10-05T23:17:59.784Z,6.57
2022-10-05T23:20:28.970Z,5.55
2022-10-05T23:22:58.223Z,5.93
2022-10-05T23:25:27.536Z,6.05
2022-10-05T23:27:56.816Z,5.75
2022-10-05T23:30:26.136Z,5.70
2022-10-05T23:32:55.427Z,5.72
2022-10-05T23:35:24.670Z,6.38
2022-10-05T23:37:53.848Z,6.15
2022-10-05T23:40:23.069Z,5.78
2022-10-05T23:42:52.913Z,8.45
2022-10-05T23:45:22.037Z,8.00
2022-10-05T23:47:51.213Z,6.20
2022-10-05T23:50:22.443Z,6.07
2022-10-05T23:52:51.707Z,6.57
2022-10-05T23:55:20.872Z,6.20
2022-10-05T23:57:50.074Z,6.55
